createdAt,value
2023-02-03T00:01:09.084Z,191.30
2023-02-03T00:03:36.747Z,195.47
2023-02-03T00:06:05.371Z,193.37
2023-02-03T00:08:33.159Z,196.57
2023-02-03T00:11:01.191Z,178.33
2023-02-03T00:13:30.296Z,186.13
2023-02-03T00:15:58.020Z,193.03
2023-02-03T00:18:25.763Z,197.43
2023-02-03T00:20:53.469Z,196.67
2023-02-03T00:23:21.323Z,195.60
2023-02-03T00:25:49.035Z,178.90
2023-02-03T00:28:16.720Z,196.83
2023-02-03T00:30:45.743Z,188.73
2023-02-03T00:33:13.403Z,178.00
2023-02-03T00:35:42.050Z,183.90
2023-02-03T00:38:09.685Z,182.40
2023-02-03T00:40:37.308Z,181.83
2023-02-03T00:43:05.207Z,189.60
2023-02-03T00:45:33.080Z,194.43
2023-02-03T00:48:02.167Z,186.17
2023-02-03T00:50:29.880Z,213.27
2023-02-03T00:52:58.370Z,187.13
2023-02-03T00:55:26.925Z,180.50
2023-02-03T00:57:54.605Z,170.87
2023-02-03T01:00:22.481Z,193.33
2023-02-03T01:02:50.245Z,173.33
2023-02-03T01:05:19.259Z,184.07
2023-02-03T01:07:46.951Z,183.17
2023-02-03T01:10:15.663Z,204.90
2023-02-03T01:12:43.493Z,191.33
2023-02-03T01:15:11.639Z,201.90
2023-02-03T01:17:39.447Z,183.50
2023-02-03T01:20:07.959Z,168.07
2023-02-03T01:22:37.333Z,183.87
2023-02-03T01:25:05.381Z,179.77
2023-02-03T01:27:33.197Z,184.13
2023-02-03T01:30:00.894Z,204.23
2023-02-03T01:32:28.616Z,186.90
2023-02-03T01:34:57.827Z,190.53
2023-02-03T01:37:25.457Z,189.63
2023-02-03T01:39:57.550Z,195.10
2023-02-03T01:42:25.294Z,193.50
2023-02-03T01:44:53.620Z,170.20
2023-02-03T01:47:31.607Z,188.13
2023-02-03T01:50:07.489Z,185.37
2023-02-03T01:52:36.508Z,191.03
2023-02-03T01:55:08.985Z,183.60
2023-02-03T01:57:41.038Z,178.70
2023-02-03T02:00:10.143Z,187.90
2023-02-03T02:02:46.631Z,183.77
2023-02-03T02:05:21.404Z,185.93
2023-02-03T02:07:50.695Z,187.93
2023-02-03T02:10:19.688Z,201.33
2023-02-03T02:12:48.784Z,196.73
2023-02-03T02:15:16.665Z,182.70
2023-02-03T02:18:07.493Z,186.40
2023-02-03T02:21:17.438Z,183.33
2023-02-03T02:24:33.880Z,177.27
2023-02-03T02:27:08.761Z,175.93
2023-02-03T02:29:58.198Z,178.07
2023-02-03T02:32:48.139Z,171.90
2023-02-03T02:35:22.487Z,186.90
2023-02-03T02:38:00.083Z,185.17
2023-02-03T02:40:35.723Z,186.00
2023-02-03T02:43:11.898Z,184.77
2023-02-03T02:45:47.538Z,178.23
2023-02-03T02:48:23.958Z,181.17
2023-02-03T02:50:55.145Z,190.37
2023-02-03T02:53:27.559Z,167.90
2023-02-03T02:55:58.423Z,179.83
2023-02-03T02:58:29.056Z,184.87
2023-02-03T03:00:56.839Z,191.40
2023-02-03T03:03:26.198Z,174.30
2023-02-03T03:05:57.065Z,195.87
2023-02-03T03:08:34.662Z,192.60
2023-02-03T03:11:03.491Z,182.63
2023-02-03T03:13:33.591Z,191.10
2023-02-03T03:16:07.506Z,197.77
2023-02-03T03:18:43.388Z,188.67
2023-02-03T03:21:15.620Z,177.13
2023-02-03T03:23:48.716Z,193.43
2023-02-03T03:26:23.419Z,193.67
2023-02-03T03:28:55.759Z,184.77
2023-02-03T03:31:23.589Z,188.90
2023-02-03T03:33:52.775Z,192.53
2023-02-03T03:36:26.081Z,186.97
2023-02-03T03:39:01.574Z,194.27
2023-02-03T03:41:39.408Z,181.57
2023-02-03T03:44:12.629Z,176.57
2023-02-03T03:46:44.869Z,186.60
2023-02-03T03:49:15.005Z,171.83
2023-02-03T03:51:47.968Z,170.27
2023-02-03T03:54:19.906Z,165.23
2023-02-03T03:56:53.086Z,146.50
2023-02-03T03:59:23.745Z,160.47
2023-02-03T04:01:52.745Z,155.97
2023-02-03T04:04:24.153Z,162.57
2023-02-03T04:06:54.377Z,159.87
2023-02-03T04:09:22.071Z,154.77
2023-02-03T04:12:06.159Z,175.53
2023-02-03T04:14:35.821Z,154.27
2023-02-03T04:17:03.721Z,175.57
2023-02-03T04:19:33.028Z,169.80
2023-02-03T04:22:00.718Z,178.80
2023-02-03T04:24:28.329Z,169.93
2023-02-03T04:26:56.224Z,170.17
2023-02-03T04:29:23.868Z,168.70
2023-02-03T04:31:51.560Z,176.07
2023-02-03T04:34:19.218Z,174.80
2023-02-03T04:36:48.182Z,164.20
2023-02-03T04:39:15.810Z,191.30
2023-02-03T04:41:43.490Z,170.67
2023-02-03T04:44:11.211Z,179.07
2023-02-03T04:46:38.873Z,188.37
2023-02-03T04:49:06.851Z,172.07
2023-02-03T04:51:34.559Z,180.00
2023-02-03T04:54:03.519Z,167.63
2023-02-03T04:56:31.261Z,176.90
2023-02-03T04:58:58.905Z,165.37
2023-02-03T05:01:26.696Z,182.43
2023-02-03T05:03:54.417Z,168.90
2023-02-03T05:06:25.150Z,182.87
2023-02-03T05:08:52.876Z,171.97
2023-02-03T05:11:22.142Z,181.53
2023-02-03T05:13:49.831Z,176.13
2023-02-03T05:16:17.690Z,191.53
2023-02-03T05:18:45.440Z,184.97
2023-02-03T05:21:13.136Z,177.27
2023-02-03T05:23:40.838Z,173.60
2023-02-03T05:26:08.495Z,189.67
2023-02-03T05:28:37.485Z,173.33
2023-02-03T05:31:06.054Z,182.10
2023-02-03T05:33:33.847Z,174.70
2023-02-03T05:36:01.482Z,175.17
2023-02-03T05:38:29.084Z,181.63
2023-02-03T05:41:14.521Z,182.93
2023-02-03T05:43:43.520Z,179.37
2023-02-03T05:46:11.385Z,164.80
2023-02-03T05:48:39.110Z,181.77
2023-02-03T05:51:06.941Z,177.93
2023-02-03T05:53:34.553Z,193.87
2023-02-03T05:56:02.238Z,182.20
2023-02-03T05:58:29.941Z,198.67
2023-02-03T06:00:58.948Z,214.57
2023-02-03T06:03:26.867Z,194.80
2023-02-03T06:05:54.510Z,215.80
2023-02-03T06:08:22.177Z,216.67
2023-02-03T06:10:49.877Z,212.70
2023-02-03T06:13:17.495Z,208.80
2023-02-03T06:15:45.185Z,191.87
2023-02-03T06:18:14.252Z,204.17
2023-02-03T06:20:42.028Z,204.17
2023-02-03T06:23:09.640Z,210.43
2023-02-03T06:25:37.267Z,223.23
2023-02-03T06:28:05.346Z,217.30
2023-02-03T06:30:33.147Z,203.10
2023-02-03T06:33:00.879Z,199.67
2023-02-03T06:35:29.950Z,214.23
2023-02-03T06:37:57.673Z,208.70
2023-02-03T06:40:25.560Z,189.27
2023-02-03T06:42:53.401Z,205.50
2023-02-03T06:45:21.067Z,199.90
2023-02-03T06:47:48.718Z,203.70
2023-02-03T06:50:17.131Z,195.07
2023-02-03T06:52:46.437Z,212.43
2023-02-03T06:55:14.099Z,201.83
2023-02-03T06:57:45.910Z,205.27
2023-02-03T07:00:18.448Z,195.60
2023-02-03T07:02:47.023Z,200.20
2023-02-03T07:05:14.876Z,183.50
2023-02-03T07:07:42.548Z,211.23
2023-02-03T07:10:11.747Z,206.13
2023-02-03T07:12:39.405Z,208.07
2023-02-03T07:15:07.700Z,211.83
2023-02-03T07:17:35.583Z,202.53
2023-02-03T07:20:05.903Z,205.33
2023-02-03T07:22:33.818Z,215.07
2023-02-03T07:25:01.561Z,214.23
2023-02-03T07:27:32.728Z,198.03
2023-02-03T07:30:00.407Z,211.90
2023-02-03T07:32:28.158Z,185.87
2023-02-03T07:34:55.883Z,190.17
2023-02-03T07:37:23.905Z,199.93
2023-02-03T07:39:51.536Z,203.47
2023-02-03T07:42:19.198Z,207.93
2023-02-03T07:44:51.963Z,204.23
2023-02-03T07:47:19.643Z,210.90
2023-02-03T07:49:47.298Z,213.40
2023-02-03T07:52:14.973Z,202.97
2023-02-03T07:54:42.711Z,210.53
2023-02-03T07:57:10.319Z,202.73
2023-02-03T07:59:37.972Z,197.63
2023-02-03T08:02:09.126Z,201.07
2023-02-03T08:04:36.832Z,203.77
2023-02-03T08:07:04.958Z,202.30
2023-02-03T08:09:32.778Z,205.13
2023-02-03T08:12:00.481Z,203.77
2023-02-03T08:14:28.147Z,207.17
2023-02-03T08:16:55.766Z,196.43
2023-02-03T08:19:24.781Z,196.53
2023-02-03T08:21:52.494Z,206.97
2023-02-03T08:24:20.227Z,207.63
2023-02-03T08:26:47.840Z,209.67
2023-02-03T08:29:15.510Z,192.60
2023-02-03T08:31:43.564Z,195.83
2023-02-03T08:34:11.389Z,197.73
2023-02-03T08:36:40.675Z,191.30
2023-02-03T08:39:08.515Z,199.37
2023-02-03T08:41:36.175Z,187.33
2023-02-03T08:44:03.869Z,218.43
2023-02-03T08:46:31.587Z,204.93
2023-02-03T08:49:00.652Z,219.33
2023-02-03T08:51:28.307Z,219.57
2023-02-03T08:53:57.257Z,197.73
2023-02-03T08:56:26.389Z,197.23
2023-02-03T08:58:55.979Z,200.57
2023-02-03T09:01:23.869Z,235.00
2023-02-03T09:03:51.620Z,230.97
2023-02-03T09:06:21.353Z,207.53
2023-02-03T09:08:50.442Z,206.07
2023-02-03T09:11:19.799Z,212.53
2023-02-03T09:13:48.621Z,217.77
2023-02-03T09:16:18.819Z,231.33
2023-02-03T09:18:47.278Z,220.40
2023-02-03T09:21:31.727Z,218.23
2023-02-03T09:24:05.253Z,215.33
2023-02-03T09:26:34.270Z,201.63
2023-02-03T09:29:02.173Z,229.70
2023-02-03T09:31:30.089Z,215.70
2023-02-03T09:33:57.762Z,223.57
2023-02-03T09:36:25.415Z,227.90
2023-02-03T09:38:53.715Z,224.70
2023-02-03T09:41:42.477Z,220.70
2023-02-03T09:44:17.588Z,217.67
2023-02-03T09:46:47.786Z,219.33
2023-02-03T09:49:22.100Z,228.50
2023-02-03T09:51:53.559Z,222.00
2023-02-03T09:54:27.253Z,231.03
2023-02-03T09:57:00.182Z,216.20
2023-02-03T09:59:32.635Z,222.20
2023-02-03T10:02:10.106Z,227.10
2023-02-03T10:04:40.523Z,203.80
2023-02-03T10:07:16.776Z,214.40
2023-02-03T10:09:56.002Z,200.17
2023-02-03T10:12:44.877Z,222.87
2023-02-03T10:15:56.881Z,220.50
2023-02-03T10:18:29.481Z,199.33
2023-02-03T10:21:03.938Z,198.67
2023-02-03T10:23:36.177Z,220.57
2023-02-03T10:26:08.043Z,217.90
2023-02-03T10:28:41.521Z,217.77
2023-02-03T10:31:18.526Z,215.20
2023-02-03T10:33:47.440Z,227.23
2023-02-03T10:36:20.949Z,204.20
2023-02-03T10:38:57.580Z,224.00
2023-02-03T10:41:25.581Z,228.00
2023-02-03T10:43:57.371Z,234.93
2023-02-03T10:46:30.576Z,220.63
2023-02-03T10:48:58.333Z,214.93
2023-02-03T10:51:30.246Z,217.07
2023-02-03T10:53:58.112Z,214.70
2023-02-03T10:56:30.432Z,238.23
2023-02-03T10:59:01.585Z,216.13
2023-02-03T11:01:41.835Z,223.13
2023-02-03T11:04:26.744Z,223.07
2023-02-03T11:06:57.057Z,207.27
2023-02-03T11:09:32.204Z,207.93
2023-02-03T11:12:19.152Z,214.10
2023-02-03T11:14:50.039Z,206.43
2023-02-03T11:17:19.541Z,225.57
2023-02-03T11:19:49.363Z,225.50
2023-02-03T11:22:29.861Z,208.37
2023-02-03T11:24:58.863Z,244.40
2023-02-03T11:27:30.680Z,218.07
2023-02-03T11:30:15.281Z,225.60
2023-02-03T11:32:45.576Z,220.50
2023-02-03T11:35:20.112Z,231.93
2023-02-03T11:37:50.565Z,211.70
2023-02-03T11:40:28.102Z,210.87
2023-02-03T11:43:15.309Z,217.57
2023-02-03T11:45:46.485Z,192.07
2023-02-03T11:48:26.159Z,216.77
2023-02-03T11:51:04.155Z,204.20
2023-02-03T11:53:56.889Z,212.50
2023-02-03T11:56:37.010Z,220.10
2023-02-03T11:59:22.346Z,207.80
2023-02-03T12:02:25.403Z,205.87
2023-02-03T12:05:07.619Z,204.10
2023-02-03T12:07:50.272Z,217.33
2023-02-03T12:10:31.997Z,213.20
2023-02-03T12:13:09.037Z,204.20
2023-02-03T12:15:52.978Z,218.67
2023-02-03T12:18:38.947Z,206.07
2023-02-03T12:21:32.128Z,217.80
2023-02-03T12:24:09.097Z,204.27
2023-02-03T12:26:43.956Z,214.47
2023-02-03T12:29:17.351Z,228.00
2023-02-03T12:31:51.020Z,229.40
2023-02-03T12:34:22.983Z,222.17
2023-02-03T12:36:58.168Z,230.40
2023-02-03T12:39:30.454Z,221.40
2023-02-03T12:42:02.551Z,228.03
2023-02-03T12:44:35.398Z,211.97
2023-02-03T12:47:08.398Z,244.70
2023-02-03T12:49:43.164Z,231.00
2023-02-03T12:52:19.817Z,225.10
2023-02-03T12:54:53.465Z,219.07
2023-02-03T12:57:28.247Z,197.30
2023-02-03T13:00:16.903Z,210.07
2023-02-03T13:02:57.801Z,227.93
2023-02-03T13:05:31.251Z,214.83
2023-02-03T13:08:11.660Z,226.77
2023-02-03T13:10:48.517Z,218.87
2023-02-03T13:13:22.464Z,242.20
2023-02-03T13:15:53.503Z,236.70
2023-02-03T13:18:28.169Z,225.70
2023-02-03T13:20:56.589Z,216.93
2023-02-03T13:23:26.035Z,241.10
2023-02-03T13:26:15.223Z,218.63
2023-02-03T13:28:57.481Z,216.70
2023-02-03T13:31:38.588Z,218.60
2023-02-03T13:34:30.303Z,215.80
2023-02-03T13:37:21.256Z,224.17
2023-02-03T13:40:13.090Z,221.93
2023-02-03T13:42:47.005Z,227.13
2023-02-03T13:45:23.256Z,233.37
2023-02-03T13:47:53.934Z,224.87
2023-02-03T13:50:24.817Z,219.47
2023-02-03T13:53:00.155Z,232.30
2023-02-03T13:55:37.915Z,209.87
2023-02-03T13:58:08.519Z,220.43
2023-02-03T14:01:03.239Z,220.73
2023-02-03T14:03:45.630Z,223.17
2023-02-03T14:07:02.425Z,215.67
2023-02-03T14:10:05.870Z,205.70
2023-02-03T14:12:37.495Z,204.37
2023-02-03T14:15:21.589Z,219.73
2023-02-03T14:18:06.612Z,226.40
2023-02-03T14:20:49.112Z,213.57
2023-02-03T14:23:22.351Z,235.87
2023-02-03T14:25:53.712Z,206.00
2023-02-03T14:28:26.768Z,216.70
2023-02-03T14:31:05.299Z,232.97
2023-02-03T14:33:54.893Z,221.17
2023-02-03T14:36:31.707Z,223.20
2023-02-03T14:39:02.383Z,211.67
2023-02-03T14:41:43.323Z,225.03
2023-02-03T14:44:24.295Z,214.63
2023-02-03T14:47:08.181Z,214.80
2023-02-03T14:49:56.797Z,220.17
2023-02-03T14:52:37.981Z,213.10
2023-02-03T14:55:24.878Z,206.50
2023-02-03T14:57:56.112Z,210.37
2023-02-03T15:00:31.827Z,209.53
2023-02-03T15:03:22.878Z,208.57
2023-02-03T15:05:52.869Z,198.23
2023-02-03T15:08:45.279Z,213.67
2023-02-03T15:11:32.150Z,214.27
2023-02-03T15:14:19.033Z,220.83
2023-02-03T15:16:51.814Z,198.07
2023-02-03T15:19:22.164Z,224.80
2023-02-03T15:21:49.896Z,230.20
2023-02-03T15:24:21.390Z,223.67
2023-02-03T15:26:51.882Z,222.40
2023-02-03T15:29:31.163Z,213.20
2023-02-03T15:32:07.312Z,196.43
2023-02-03T15:34:39.770Z,214.03
2023-02-03T15:37:17.585Z,219.53
2023-02-03T15:39:53.063Z,214.60
2023-02-03T15:42:26.077Z,212.70
2023-02-03T15:44:58.808Z,219.57
2023-02-03T15:47:32.669Z,219.10
2023-02-03T15:50:06.956Z,211.43
2023-02-03T15:52:40.936Z,211.87
2023-02-03T15:55:20.858Z,222.27
2023-02-03T15:57:51.424Z,211.60
2023-02-03T16:00:39.599Z,214.93
2023-02-03T16:03:21.437Z,210.70
2023-02-03T16:05:50.288Z,223.60
2023-02-03T16:08:38.001Z,232.80
2023-02-03T16:11:24.688Z,208.57
2023-02-03T16:13:55.122Z,219.30
2023-02-03T16:16:26.493Z,224.43
2023-02-03T16:18:57.656Z,231.13
2023-02-03T16:21:35.898Z,203.83
2023-02-03T16:24:06.000Z,203.90
2023-02-03T16:26:36.600Z,236.83
2023-02-03T16:29:33.358Z,224.97
2023-02-03T16:32:19.766Z,223.53
2023-02-03T16:35:06.472Z,194.90
2023-02-03T16:38:01.906Z,215.17
2023-02-03T16:40:47.195Z,201.33
2023-02-03T16:43:34.108Z,215.83
2023-02-03T16:46:21.793Z,206.40
2023-02-03T16:49:07.296Z,211.67
2023-02-03T16:51:40.577Z,211.97
2023-02-03T16:54:10.921Z,227.00
2023-02-03T16:56:38.786Z,219.50
2023-02-03T16:59:07.166Z,213.17
2023-02-03T17:01:35.640Z,213.53
2023-02-03T17:04:03.396Z,217.70
2023-02-03T17:06:32.808Z,217.83
2023-02-03T17:09:02.330Z,219.33
2023-02-03T17:11:30.103Z,215.87
2023-02-03T17:13:58.118Z,222.37
2023-02-03T17:16:27.855Z,219.17
2023-02-03T17:18:55.926Z,223.47
2023-02-03T17:21:26.340Z,227.83
2023-02-03T17:23:54.187Z,240.30
2023-02-03T17:26:23.210Z,222.23
2023-02-03T17:28:50.894Z,232.50
2023-02-03T17:31:20.704Z,234.57
2023-02-03T17:33:51.820Z,212.53
2023-02-03T17:36:21.594Z,226.43
2023-02-03T17:55:26.139Z,195.17
2023-02-03T17:57:55.212Z,214.50
2023-02-03T18:00:23.331Z,215.67
2023-02-03T18:02:51.781Z,208.13
2023-02-03T18:05:20.389Z,201.07
2023-02-03T18:10:17.035Z,192.50
2023-02-03T18:12:44.751Z,221.77
2023-02-03T18:15:13.736Z,215.07
2023-02-03T18:17:41.602Z,223.10
2023-02-03T18:20:10.359Z,213.77
2023-02-03T18:22:38.028Z,208.43
2023-02-03T18:25:06.435Z,213.37
2023-02-03T18:27:34.081Z,206.67
2023-02-03T18:30:01.752Z,220.97
2023-02-03T18:32:30.804Z,208.40
2023-02-03T18:34:59.344Z,218.77
2023-02-03T18:37:28.281Z,202.80
2023-02-03T18:39:55.935Z,209.60
2023-02-03T18:42:23.573Z,219.27
2023-02-03T18:44:51.255Z,218.13
2023-02-03T18:47:18.880Z,208.50
2023-02-03T18:49:47.912Z,219.80
2023-02-03T18:52:15.563Z,203.17
2023-02-03T18:54:43.180Z,214.87
2023-02-03T18:57:13.178Z,199.87
2023-02-03T18:59:40.914Z,211.87
2023-02-03T19:02:10.768Z,209.33
2023-02-03T19:04:38.427Z,228.17
2023-02-03T19:07:07.430Z,203.90
2023-02-03T19:09:35.326Z,225.47
2023-02-03T19:12:04.110Z,213.07
2023-02-03T19:14:32.585Z,202.57
2023-02-03T19:17:00.280Z,232.97
2023-02-03T19:19:28.068Z,219.03
2023-02-03T19:21:55.739Z,223.27
2023-02-03T19:24:26.650Z,214.20
2023-02-03T19:26:54.918Z,228.83
2023-02-03T19:29:22.537Z,214.73
2023-02-03T19:31:50.691Z,217.63
2023-02-03T19:34:18.726Z,239.00
2023-02-03T19:36:46.958Z,224.20
2023-02-03T19:39:14.804Z,221.37
2023-02-03T19:41:43.860Z,201.77
2023-02-03T19:44:11.752Z,222.07
2023-02-03T19:46:41.551Z,223.70
2023-02-03T19:49:11.839Z,209.10
2023-02-03T19:51:40.381Z,208.27
2023-02-03T19:54:08.989Z,224.87
2023-02-03T19:56:36.643Z,237.53
2023-02-03T19:59:05.892Z,234.00
2023-02-03T20:01:33.607Z,241.27
2023-02-03T20:04:01.764Z,230.13
2023-02-03T20:06:31.487Z,234.73
2023-02-03T20:09:00.130Z,231.90
2023-02-03T20:11:28.011Z,238.60
2023-02-03T20:13:55.950Z,243.10
2023-02-03T20:16:25.022Z,236.13
2023-02-03T20:18:52.662Z,256.93
2023-02-03T20:21:20.781Z,245.93
2023-02-03T20:23:48.495Z,257.93
2023-02-03T20:26:16.293Z,244.10
2023-02-03T20:28:45.830Z,272.80
2023-02-03T20:31:14.204Z,257.93
2023-02-03T20:33:43.551Z,251.80
2023-02-03T20:36:12.249Z,261.03
2023-02-03T20:38:39.961Z,269.87
2023-02-03T20:41:10.284Z,282.43
2023-02-03T20:43:38.100Z,263.70
2023-02-03T20:46:11.178Z,264.20
2023-02-03T20:48:39.198Z,261.83
2023-02-03T20:51:12.057Z,247.33
2023-02-03T20:53:40.536Z,267.90
2023-02-03T20:56:13.939Z,263.73
2023-02-03T20:58:42.580Z,246.10
2023-02-03T21:01:14.657Z,259.57
2023-02-03T21:03:59.780Z,267.50
2023-02-03T21:06:30.082Z,263.90
2023-02-03T21:09:02.572Z,269.13
2023-02-03T21:11:30.674Z,264.70
2023-02-03T21:13:58.348Z,255.40
2023-02-03T21:16:30.696Z,259.47
2023-02-03T21:19:02.629Z,255.83
2023-02-03T21:21:36.118Z,245.43
2023-02-03T21:24:24.354Z,243.17
2023-02-03T21:26:52.143Z,255.43
2023-02-03T21:29:25.121Z,258.63
2023-02-03T21:31:53.717Z,248.00
2023-02-03T21:34:28.373Z,253.93
2023-02-03T21:36:58.341Z,247.10
2023-02-03T21:39:28.930Z,246.00
2023-02-03T21:41:57.341Z,257.17
2023-02-03T21:44:28.555Z,262.67
2023-02-03T21:46:56.547Z,260.90
2023-02-03T21:49:24.175Z,262.50
2023-02-03T21:51:51.852Z,275.30
2023-02-03T21:54:27.969Z,257.37
2023-02-03T21:56:55.738Z,267.77
2023-02-03T21:59:28.361Z,277.93
2023-02-03T22:01:57.668Z,265.70
2023-02-03T22:04:27.973Z,273.40
2023-02-03T22:06:55.866Z,258.77
2023-02-03T22:09:25.920Z,283.30
2023-02-03T22:11:53.928Z,264.73
2023-02-03T22:14:21.796Z,264.53
2023-02-03T22:16:49.796Z,268.10
2023-02-03T22:19:17.527Z,269.73
2023-02-03T22:21:47.673Z,264.43
2023-02-03T22:24:15.346Z,274.03
2023-02-03T22:26:44.343Z,264.47
2023-02-03T22:29:11.966Z,253.40
2023-02-03T22:31:40.757Z,264.93
2023-02-03T22:34:09.185Z,270.23
2023-02-03T22:36:37.313Z,282.87
2023-02-03T22:39:05.322Z,253.57
2023-02-03T22:41:32.991Z,267.60
2023-02-03T22:44:03.023Z,256.60
2023-02-03T22:46:30.655Z,257.37
2023-02-03T22:48:58.281Z,255.40
2023-02-03T22:51:26.280Z,254.47
2023-02-03T22:53:54.008Z,265.70
2023-02-03T22:56:23.457Z,257.77
2023-02-03T22:58:51.312Z,244.63
2023-02-03T23:01:20.295Z,269.17
2023-02-03T23:03:47.985Z,252.13
2023-02-03T23:06:15.612Z,263.67
2023-02-03T23:08:43.309Z,265.43
2023-02-03T23:11:11.014Z,257.07
2023-02-03T23:13:38.698Z,259.63
2023-02-03T23:16:06.814Z,255.47
2023-02-03T23:18:35.779Z,256.77
2023-02-03T23:21:03.558Z,262.23
2023-02-03T23:23:31.240Z,262.10
2023-02-03T23:25:58.901Z,253.07
2023-02-03T23:28:26.533Z,247.20
2023-02-03T23:30:55.876Z,269.63
2023-02-03T23:33:23.887Z,253.00
2023-02-03T23:35:52.585Z,244.70
2023-02-03T23:38:20.245Z,256.67
2023-02-03T23:40:48.560Z,251.43
2023-02-03T23:43:16.837Z,266.80
2023-02-03T23:45:44.523Z,269.27
2023-02-03T23:48:12.455Z,258.90
2023-02-03T23:50:40.223Z,253.57
2023-02-03T23:53:09.964Z,249.93
2023-02-03T23:55:37.624Z,264.60
2023-02-03T23:58:05.914Z,245.93
